createdAt,value
2023-04-11T00:03:22.449Z,2.97
2023-04-11T00:08:25.655Z,2.63
2023-04-11T00:13:29.796Z,2.42
2023-04-11T00:18:35.944Z,2.63
2023-04-11T00:23:38.751Z,4.60
2023-04-11T00:28:42.964Z,4.57
2023-04-11T00:33:45.820Z,2.42
2023-04-11T00:38:48.996Z,1.40
2023-04-11T00:43:54.245Z,3.17
2023-04-11T00:48:57.489Z,3.20
2023-04-11T00:54:02.202Z,3.40
2023-04-11T00:59:07.141Z,1.85
2023-04-11T01:04:10.543Z,2.33
2023-04-11T01:09:13.986Z,2.75
2023-04-11T01:14:20.569Z,2.10
2023-04-11T01:19:25.898Z,2.97
2023-04-11T01:24:30.749Z,2.08
2023-04-11T01:29:33.598Z,2.15
2023-04-11T01:34:38.738Z,3.85
2023-04-11T01:39:42.980Z,3.17
2023-04-11T01:44:45.810Z,3.78
2023-04-11T01:49:48.678Z,2.58
2023-04-11T01:54:52.886Z,4.95
2023-04-11T01:59:55.721Z,17.95
2023-04-11T02:04:58.906Z,4.90
2023-04-11T02:10:03.118Z,2.25
2023-04-11T02:15:06.767Z,2.25
2023-04-11T02:20:10.979Z,2.42
2023-04-11T02:25:15.212Z,2.88
2023-04-11T02:30:18.061Z,3.53
2023-04-11T02:35:21.075Z,5.18
2023-04-11T02:40:25.195Z,5.22
2023-04-11T02:45:28.027Z,5.30
2023-04-11T02:50:30.892Z,6.45
2023-04-11T02:55:35.254Z,8.88
2023-04-11T03:00:39.138Z,4.63
2023-04-11T03:05:44.707Z,6.60
2023-04-11T03:10:51.066Z,11.52
2023-04-11T03:15:54.639Z,6.43
2023-04-11T03:21:01.573Z,6.35
2023-04-11T03:26:07.987Z,8.65
2023-04-11T03:31:11.770Z,13.40
2023-04-11T03:36:16.744Z,11.18
2023-04-11T03:41:21.846Z,8.82
2023-04-11T03:46:26.190Z,5.95
2023-04-11T03:51:29.471Z,10.43
2023-04-11T03:56:40.763Z,7.18
2023-04-11T04:01:50.233Z,10.73
2023-04-11T04:06:56.762Z,8.55
2023-04-11T04:12:08.600Z,10.98
2023-04-11T04:17:32.603Z,10.55
2023-04-11T04:22:37.196Z,16.60
2023-04-11T04:27:44.329Z,18.23
2023-04-11T04:32:48.875Z,13.30
2023-04-11T04:37:51.849Z,10.52
2023-04-11T04:43:09.098Z,12.43
2023-04-11T04:48:18.612Z,19.08
2023-04-11T04:53:22.643Z,19.15
2023-04-11T04:58:34.301Z,21.17
2023-04-11T05:03:40.016Z,17.13
2023-04-11T05:08:48.658Z,22.77
2023-04-11T05:13:54.090Z,18.13
2023-04-11T05:18:57.692Z,25.17
2023-04-11T05:24:00.917Z,26.42
2023-04-11T05:29:12.798Z,24.92
2023-04-11T05:34:15.670Z,14.27
2023-04-11T05:39:19.549Z,5.15
2023-04-11T05:44:24.040Z,4.68
2023-04-11T05:49:26.949Z,11.43
2023-04-11T05:54:33.618Z,3.17
2023-04-11T05:59:37.879Z,3.10
2023-04-11T06:04:41.244Z,7.55
2023-04-11T06:09:44.325Z,3.90
2023-04-11T06:14:48.587Z,2.92
2023-04-11T06:19:51.437Z,5.85
2023-04-11T06:24:54.275Z,11.68
2023-04-11T06:29:58.515Z,3.92
2023-04-11T06:35:01.552Z,14.65
2023-04-11T06:40:05.748Z,3.00
2023-04-11T06:45:12.027Z,6.85
2023-04-11T06:50:14.964Z,2.70
2023-04-11T06:55:18.098Z,1.90
2023-04-11T07:00:22.755Z,1.00
2023-04-11T07:05:26.193Z,3.33
2023-04-11T07:10:29.126Z,0.93
2023-04-11T07:15:33.300Z,4.53
2023-04-11T07:20:36.391Z,3.50
2023-04-11T07:25:39.292Z,10.35
2023-04-11T07:30:43.723Z,8.57
2023-04-11T07:35:46.509Z,5.72
2023-04-11T07:40:49.457Z,8.27
2023-04-11T07:45:54.206Z,7.38
2023-04-11T07:50:57.084Z,12.32
2023-04-11T07:55:59.942Z,4.63
2023-04-11T08:01:05.454Z,8.63
2023-04-11T08:06:09.121Z,14.93
2023-04-11T08:11:11.900Z,4.57
2023-04-11T08:16:16.422Z,7.75
2023-04-11T08:21:19.245Z,6.13
2023-04-11T08:26:22.055Z,5.18
2023-04-11T08:31:26.897Z,8.73
2023-04-11T08:36:29.727Z,12.35
2023-04-11T08:41:34.477Z,6.47
2023-04-11T08:46:42.664Z,9.05
2023-04-11T08:51:46.110Z,6.63
2023-04-11T08:56:48.968Z,9.93
2023-04-11T09:01:53.841Z,6.75
2023-04-11T09:07:01.162Z,8.00
2023-04-11T09:12:05.077Z,5.90
2023-04-11T09:17:13.422Z,3.53
2023-04-11T09:22:16.340Z,3.90
2023-04-11T09:27:24.326Z,7.30
2023-04-11T09:32:30.263Z,2.90
2023-04-11T09:37:43.813Z,6.28
2023-04-11T09:42:47.865Z,5.25
2023-04-11T09:47:53.999Z,6.47
2023-04-11T09:52:59.317Z,5.07
2023-04-11T09:58:02.933Z,5.00
2023-04-11T10:03:07.275Z,4.68
2023-04-11T10:08:18.218Z,5.32
2023-04-11T10:13:43.253Z,4.88
2023-04-11T10:19:20.087Z,2.95
2023-04-11T10:24:26.573Z,5.18
2023-04-11T10:29:52.491Z,4.55
2023-04-11T10:35:29.511Z,6.00
2023-04-11T10:40:33.703Z,10.18
2023-04-11T10:45:39.894Z,3.78
2023-04-11T10:50:44.537Z,10.52
2023-04-11T10:55:50.699Z,8.18
2023-04-11T11:01:31.278Z,1.95
2023-04-11T11:06:47.208Z,3.00
2023-04-11T11:12:11.945Z,3.65
2023-04-11T11:17:16.058Z,4.75
2023-04-11T11:22:25.556Z,9.23
2023-04-11T11:27:30.009Z,4.40
2023-04-11T11:32:32.954Z,5.63
2023-04-11T11:37:36.268Z,6.25
2023-04-11T11:42:40.943Z,9.98
2023-04-11T11:47:44.338Z,7.13
2023-04-11T11:52:48.760Z,7.15
2023-04-11T11:57:52.969Z,5.85
2023-04-11T12:02:59.324Z,5.47
2023-04-11T12:08:04.305Z,4.90
2023-04-11T12:13:16.154Z,7.53
2023-04-11T12:18:24.710Z,5.63
2023-04-11T12:23:27.547Z,6.95
2023-04-11T12:28:31.760Z,6.65
2023-04-11T12:33:34.824Z,5.53
2023-04-11T12:45:18.758Z,4.90
2023-04-11T12:50:23.264Z,10.75
2023-04-11T12:55:26.086Z,11.93
2023-04-11T13:00:30.298Z,9.43
2023-04-11T13:05:33.033Z,3.47
2023-04-11T13:10:35.761Z,6.03
2023-04-11T13:15:39.794Z,4.82
2023-04-11T13:20:42.589Z,1.50
2023-04-11T13:25:45.316Z,6.32
2023-04-11T13:30:49.405Z,4.57
2023-04-11T13:35:52.144Z,12.82
2023-04-11T13:40:55.622Z,4.05
2023-04-11T13:45:59.776Z,3.92
2023-04-11T13:51:02.517Z,4.60
2023-04-11T13:56:05.777Z,6.07
2023-04-11T14:01:10.374Z,4.25
2023-04-11T14:06:13.330Z,2.83
2023-04-11T14:11:16.137Z,1.70
2023-04-11T14:16:20.523Z,2.60
2023-04-11T14:21:23.700Z,5.60
2023-04-11T14:26:26.651Z,4.40
2023-04-11T14:31:32.250Z,3.22
2023-04-11T14:36:35.634Z,1.63
2023-04-11T14:41:38.872Z,7.90
2023-04-11T14:46:43.370Z,2.58
2023-04-11T14:51:46.410Z,6.07
2023-04-11T14:56:49.215Z,5.88
2023-04-11T15:01:53.481Z,8.73
2023-04-11T15:06:56.552Z,2.83
2023-04-11T15:11:59.370Z,3.60
2023-04-11T15:17:03.528Z,3.05
2023-04-11T15:22:06.368Z,5.38
2023-04-11T15:27:09.198Z,4.45
2023-04-11T15:32:13.341Z,5.50
2023-04-11T15:37:16.151Z,2.30
2023-04-11T15:42:19.063Z,2.55
2023-04-11T15:47:23.301Z,2.90
2023-04-11T15:52:26.339Z,3.28
2023-04-11T15:57:29.185Z,2.05
2023-04-11T16:02:33.679Z,2.22
2023-04-11T16:07:36.675Z,3.95
2023-04-11T16:12:39.738Z,3.00
2023-04-11T16:17:46.313Z,5.70
2023-04-11T16:22:49.259Z,3.65
2023-04-11T16:27:52.143Z,8.88
2023-04-11T16:32:56.549Z,5.20
2023-04-11T16:37:59.413Z,3.80
2023-04-11T16:43:02.218Z,5.85
2023-04-11T16:48:07.007Z,3.65
2023-04-11T16:53:09.930Z,5.38
2023-04-11T16:58:12.773Z,3.13
2023-04-11T17:03:18.149Z,2.03
2023-04-11T17:08:21.237Z,4.28
2023-04-11T17:13:24.044Z,3.45
2023-04-11T17:18:28.442Z,4.68
2023-04-11T17:23:41.961Z,5.00
2023-04-11T17:28:46.943Z,5.65
2023-04-11T17:33:51.122Z,5.07
2023-04-11T17:38:54.748Z,3.75
2023-04-11T17:43:57.701Z,4.68
2023-04-11T17:49:02.032Z,2.92
2023-04-11T17:54:05.151Z,4.53
2023-04-11T17:59:07.880Z,3.50
2023-04-11T18:09:17.216Z,2.63
2023-04-11T18:14:20.189Z,5.53
2023-04-11T18:19:24.365Z,2.08
2023-04-11T18:24:27.803Z,3.53
2023-04-11T18:29:30.548Z,2.65
2023-04-11T18:39:38.159Z,1.98
2023-04-11T18:44:42.784Z,3.88
2023-04-11T18:49:47.547Z,7.22
2023-04-11T18:54:50.482Z,3.05
2023-04-11T18:59:55.677Z,7.35
2023-04-11T19:05:01.149Z,5.47
2023-04-11T19:10:04.145Z,6.72
2023-04-11T19:15:08.950Z,6.25
2023-04-11T19:20:13.696Z,5.57
2023-04-11T19:25:16.988Z,7.05
2023-04-11T19:30:19.899Z,7.18
2023-04-11T19:35:24.276Z,8.50
2023-04-11T19:40:27.137Z,3.90
2023-04-11T19:45:31.712Z,6.60
2023-04-11T19:50:36.848Z,4.63
2023-04-11T19:55:39.999Z,5.72
2023-04-11T20:00:42.788Z,8.02
2023-04-11T20:05:47.026Z,3.45
2023-04-11T20:10:49.993Z,5.40
2023-04-11T20:22:53.721Z,5.97
2023-04-11T20:27:56.527Z,8.23
2023-04-11T20:32:59.318Z,7.90
2023-04-11T20:38:03.456Z,7.55
2023-04-11T20:43:06.671Z,9.20
2023-04-11T20:48:12.841Z,6.68
2023-04-11T20:53:16.974Z,6.22
2023-04-11T20:58:21.007Z,10.95
2023-04-11T21:03:24.036Z,5.10
2023-04-11T21:08:28.371Z,7.40
2023-04-11T21:13:31.186Z,5.43
2023-04-11T21:18:33.958Z,7.55
2023-04-11T21:23:38.197Z,8.52
2023-04-11T21:28:40.981Z,7.28
2023-04-11T21:33:46.451Z,7.53
2023-04-11T21:38:50.668Z,7.20
2023-04-11T21:43:53.443Z,7.15
2023-04-11T21:48:56.206Z,12.75
2023-04-11T21:54:00.328Z,6.97
2023-04-11T21:59:03.194Z,6.50
2023-04-11T22:04:06.270Z,9.10
2023-04-11T22:09:10.584Z,11.32
2023-04-11T22:14:16.173Z,7.07
2023-04-11T22:19:19.730Z,8.13
2023-04-11T22:24:31.060Z,7.72
2023-04-11T22:29:34.439Z,10.20
2023-04-11T22:34:37.227Z,8.50
2023-04-11T22:39:41.461Z,10.43
2023-04-11T22:44:44.193Z,6.32
2023-04-11T22:49:46.961Z,5.97
2023-04-11T22:54:51.054Z,5.72
2023-04-11T22:59:53.838Z,7.18
2023-04-11T23:04:56.633Z,4.88
2023-04-11T23:10:04.281Z,4.35
2023-04-11T23:15:08.137Z,7.00
2023-04-11T23:20:13.645Z,5.55
2023-04-11T23:25:18.151Z,5.22
2023-04-11T23:30:20.906Z,8.02
2023-04-11T23:35:23.756Z,9.77
2023-04-11T23:40:29.554Z,9.80
2023-04-11T23:45:34.109Z,9.82
2023-04-11T23:50:36.911Z,8.30
2023-04-11T23:55:41.558Z,7.88
